createdAt,value
2023-01-09T00:02:43.587Z,3.43
2023-01-09T00:06:46.756Z,2.40
2023-01-09T00:10:49.370Z,2.60
2023-01-09T00:14:50.556Z,2.93
2023-01-09T00:18:52.624Z,3.20
2023-01-09T00:22:53.786Z,2.70
2023-01-09T00:26:54.951Z,2.80
2023-01-09T00:30:57.778Z,2.53
2023-01-09T00:34:58.913Z,3.20
2023-01-09T00:39:00.120Z,2.87
2023-01-09T00:43:01.575Z,2.17
2023-01-09T00:47:07.156Z,2.07
2023-01-09T00:51:08.399Z,1.77
2023-01-09T00:55:09.718Z,2.00
2023-01-09T00:59:10.982Z,1.97
2023-01-09T01:03:12.260Z,2.10
2023-01-09T01:07:30.467Z,1.40
2023-01-09T01:11:32.644Z,1.60
2023-01-09T01:15:34.240Z,1.50
2023-01-09T01:19:35.787Z,1.63
2023-01-09T01:23:38.005Z,1.20
2023-01-09T01:27:39.561Z,1.33
2023-01-09T01:31:40.765Z,1.10
2023-01-09T01:35:41.940Z,1.13
2023-01-09T01:39:43.113Z,2.10
2023-01-09T01:43:53.511Z,2.30
2023-01-09T01:48:10.775Z,2.33
2023-01-09T01:52:12.913Z,2.57
2023-01-09T01:56:27.087Z,2.53
2023-01-09T02:00:32.426Z,2.80
2023-01-09T02:04:36.312Z,3.30
2023-01-09T02:08:37.663Z,3.70
2023-01-09T02:12:38.829Z,3.10
2023-01-09T02:17:03.860Z,2.43
2023-01-09T02:21:34.783Z,2.80
2023-01-09T02:26:14.972Z,2.60
2023-01-09T02:30:32.225Z,2.30
2023-01-09T02:34:42.954Z,2.60
2023-01-09T02:38:54.444Z,2.40
2023-01-09T02:42:58.021Z,1.97
2023-01-09T02:47:08.371Z,1.40
2023-01-09T02:51:16.365Z,1.50
2023-01-09T02:55:30.638Z,1.50
2023-01-09T02:59:52.040Z,1.33
2023-01-09T03:04:00.521Z,1.33
2023-01-09T03:08:05.471Z,1.57
2023-01-09T03:12:19.759Z,1.17
2023-01-09T03:16:24.488Z,0.90
2023-01-09T03:20:29.549Z,1.30
2023-01-09T03:24:31.301Z,0.90
2023-01-09T03:28:32.436Z,1.00
2023-01-09T03:32:33.514Z,0.93
2023-01-09T03:36:34.646Z,0.97
2023-01-09T03:40:35.939Z,1.07
2023-01-09T03:44:37.096Z,1.23
2023-01-09T03:48:38.246Z,1.00
2023-01-09T03:52:39.390Z,1.00
2023-01-09T03:56:40.476Z,0.80
2023-01-09T04:00:42.520Z,1.00
2023-01-09T04:04:43.681Z,0.60
2023-01-09T04:08:45.740Z,0.70
2023-01-09T04:12:46.823Z,1.30
2023-01-09T04:16:48.046Z,0.70
2023-01-09T04:20:49.208Z,0.70
2023-01-09T04:24:50.360Z,0.70
2023-01-09T04:28:51.535Z,1.27
2023-01-09T04:32:52.672Z,0.77
2023-01-09T04:36:54.946Z,0.63
2023-01-09T04:40:56.022Z,0.60
2023-01-09T04:44:57.210Z,0.63
2023-01-09T04:48:58.376Z,0.33
2023-01-09T04:52:59.554Z,0.40
2023-01-09T04:57:00.708Z,0.60
2023-01-09T05:01:01.982Z,0.83
2023-01-09T05:05:05.026Z,0.60
2023-01-09T05:09:06.212Z,0.73
2023-01-09T05:13:07.360Z,0.80
2023-01-09T05:17:08.516Z,0.70
2023-01-09T05:21:10.176Z,0.60
2023-01-09T05:25:11.333Z,0.40
2023-01-09T05:29:12.520Z,0.57
2023-01-09T05:33:13.668Z,0.70
2023-01-09T05:37:14.828Z,0.67
2023-01-09T05:41:15.994Z,0.87
2023-01-09T05:45:17.292Z,0.80
2023-01-09T05:49:18.462Z,0.70
2023-01-09T05:53:19.796Z,0.63
2023-01-09T05:57:20.956Z,0.73
2023-01-09T06:01:23.779Z,0.77
2023-01-09T06:05:25.188Z,0.90
2023-01-09T06:09:26.352Z,1.10
2023-01-09T06:13:27.501Z,0.90
2023-01-09T06:17:28.634Z,1.00
2023-01-09T06:21:29.801Z,1.23
2023-01-09T06:25:31.297Z,0.63
2023-01-09T06:29:32.454Z,0.80
2023-01-09T06:33:33.627Z,1.10
2023-01-09T06:37:34.795Z,0.87
2023-01-09T06:41:36.571Z,1.17
2023-01-09T06:45:37.944Z,1.30
2023-01-09T06:49:39.109Z,2.20
2023-01-09T06:53:40.253Z,2.60
2023-01-09T06:57:41.413Z,1.73
2023-01-09T07:01:42.685Z,2.40
2023-01-09T07:05:43.851Z,2.70
2023-01-09T07:09:45.133Z,1.93
2023-01-09T07:13:46.311Z,1.80
2023-01-09T07:17:50.295Z,2.13
2023-01-09T07:21:51.458Z,2.80
2023-01-09T07:25:52.916Z,1.80
2023-01-09T07:29:54.015Z,1.50
2023-01-09T07:33:55.185Z,1.30
2023-01-09T07:37:56.344Z,1.00
2023-01-09T07:41:57.494Z,1.70
2023-01-09T07:45:58.716Z,1.20
2023-01-09T07:49:59.824Z,1.30
2023-01-09T07:54:00.996Z,1.70
2023-01-09T07:58:02.164Z,1.03
2023-01-09T08:02:04.995Z,1.60
2023-01-09T08:06:06.677Z,1.30
2023-01-09T08:10:09.924Z,1.50
2023-01-09T08:14:11.095Z,1.03
2023-01-09T08:18:12.449Z,1.50
2023-01-09T08:22:13.611Z,1.87
2023-01-09T08:26:14.802Z,1.73
2023-01-09T08:30:17.286Z,1.50
2023-01-09T08:34:18.478Z,1.30
2023-01-09T08:38:21.429Z,1.23
2023-01-09T08:42:41.102Z,2.60
2023-01-09T08:47:00.815Z,1.07
2023-01-09T08:51:02.079Z,1.50
2023-01-09T08:55:03.579Z,1.33
2023-01-09T08:59:04.750Z,1.20
2023-01-09T09:03:05.971Z,1.50
2023-01-09T09:07:07.394Z,1.00
2023-01-09T09:11:08.541Z,2.00
2023-01-09T09:15:15.901Z,0.77
2023-01-09T09:19:17.157Z,0.70
2023-01-09T09:23:18.228Z,0.90
2023-01-09T09:27:19.471Z,0.97
2023-01-09T09:31:20.701Z,1.83
2023-01-09T09:35:22.229Z,1.47
2023-01-09T09:39:23.356Z,1.77
2023-01-09T09:43:52.821Z,2.43
2023-01-09T09:48:00.540Z,1.63
2023-01-09T09:52:22.381Z,1.30
2023-01-09T09:56:23.705Z,1.27
2023-01-09T10:00:25.605Z,1.30
2023-01-09T10:04:30.070Z,1.30
2023-01-09T10:09:04.306Z,1.50
2023-01-09T10:13:27.033Z,1.50
2023-01-09T10:17:35.077Z,1.40
2023-01-09T10:21:45.639Z,1.37
2023-01-09T10:26:10.604Z,1.17
2023-01-09T10:30:48.313Z,1.03
2023-01-09T10:35:13.310Z,1.20
2023-01-09T10:39:32.925Z,1.30
2023-01-09T10:43:37.903Z,0.97
2023-01-09T10:47:42.378Z,1.47
2023-01-09T10:51:47.553Z,0.90
2023-01-09T10:55:52.520Z,1.17
2023-01-09T10:59:53.679Z,0.90
2023-01-09T11:03:56.845Z,0.70
2023-01-09T11:08:07.906Z,1.17
2023-01-09T11:12:15.911Z,0.83
2023-01-09T11:16:21.374Z,1.13
2023-01-09T11:20:28.262Z,1.00
2023-01-09T11:24:30.636Z,3.43
2023-01-09T11:28:31.803Z,1.77
2023-01-09T11:32:34.283Z,1.80
2023-01-09T11:36:35.471Z,1.33
2023-01-09T11:40:40.388Z,1.10
2023-01-09T11:44:41.927Z,1.13
2023-01-09T11:48:58.487Z,1.07
2023-01-09T11:53:12.620Z,0.97
2023-01-09T11:57:14.076Z,0.87
2023-01-09T12:01:42.149Z,1.20
2023-01-09T12:05:52.982Z,1.00
2023-01-09T12:10:06.554Z,1.40
2023-01-09T12:14:14.299Z,1.53
2023-01-09T12:18:28.247Z,1.00
2023-01-09T12:22:42.406Z,1.00
2023-01-09T12:27:05.281Z,1.03
2023-01-09T12:31:10.254Z,1.10
2023-01-09T12:35:21.283Z,0.90
2023-01-09T12:39:43.925Z,1.00
2023-01-09T12:44:06.743Z,1.73
2023-01-09T12:48:37.799Z,1.10
2023-01-09T12:52:42.749Z,0.60
2023-01-09T12:56:47.662Z,1.10
2023-01-09T13:00:51.007Z,0.97
2023-01-09T13:04:55.973Z,1.00
2023-01-09T13:09:10.807Z,1.10
2023-01-09T13:13:21.776Z,0.90
2023-01-09T13:17:38.972Z,1.73
2023-01-09T13:21:40.638Z,0.80
2023-01-09T13:25:48.569Z,0.70
2023-01-09T13:29:57.741Z,2.03
2023-01-09T13:34:02.929Z,1.57
2023-01-09T13:38:05.068Z,1.10
2023-01-09T13:42:27.874Z,0.80
2023-01-09T13:46:51.425Z,1.00
2023-01-09T13:50:54.419Z,1.37
2023-01-09T13:54:59.468Z,1.60
2023-01-09T13:59:02.353Z,1.33
2023-01-09T14:03:07.323Z,1.63
2023-01-09T14:07:29.985Z,1.20
2023-01-09T14:11:31.394Z,1.23
2023-01-09T14:15:38.903Z,1.27
2023-01-09T14:19:40.059Z,0.80
2023-01-09T14:24:06.887Z,1.03
2023-01-09T14:28:23.355Z,1.70
2023-01-09T14:32:33.268Z,1.93
2023-01-09T14:36:36.131Z,1.10
2023-01-09T14:40:37.208Z,2.10
2023-01-09T14:45:00.157Z,1.10
2023-01-09T14:49:38.958Z,1.20
2023-01-09T14:53:42.004Z,1.50
2023-01-09T14:57:43.202Z,1.60
2023-01-09T15:01:48.645Z,0.77
2023-01-09T15:05:52.021Z,0.70
2023-01-09T15:09:53.277Z,0.70
2023-01-09T15:13:58.345Z,0.90
2023-01-09T15:18:02.893Z,1.10
2023-01-09T15:22:05.992Z,0.80
2023-01-09T15:26:27.284Z,1.63
2023-01-09T15:30:34.177Z,0.80
2023-01-09T15:34:35.927Z,0.87
2023-01-09T15:38:39.493Z,0.97
2023-01-09T15:42:57.956Z,0.87
2023-01-09T15:47:01.000Z,1.40
2023-01-09T15:51:10.364Z,0.83
2023-01-09T15:55:36.062Z,0.80
2023-01-09T15:59:37.748Z,0.90
2023-01-09T16:03:38.813Z,0.70
2023-01-09T16:07:48.217Z,0.63
2023-01-09T16:11:53.093Z,1.00
2023-01-09T16:15:55.553Z,1.00
2023-01-09T16:20:00.272Z,1.50
2023-01-09T16:24:17.336Z,1.80
2023-01-09T16:28:22.407Z,1.63
2023-01-09T16:32:30.380Z,1.00
2023-01-09T16:36:34.285Z,0.90
2023-01-09T16:40:35.388Z,1.50
2023-01-09T16:44:36.543Z,1.43
2023-01-09T16:48:38.710Z,2.33
2023-01-09T16:52:39.878Z,1.17
2023-01-09T16:56:43.650Z,1.63
2023-01-09T17:00:45.044Z,1.63
2023-01-09T17:04:46.149Z,1.50
2023-01-09T17:08:47.304Z,1.80
2023-01-09T17:12:48.780Z,2.10
2023-01-09T17:16:50.040Z,2.17
2023-01-09T17:20:54.025Z,1.60
2023-01-09T17:25:13.746Z,3.57
2023-01-09T17:29:14.898Z,1.70
2023-01-09T17:33:17.404Z,1.67
2023-01-09T17:37:19.321Z,1.67
2023-01-09T17:41:22.420Z,1.17
2023-01-09T17:45:23.502Z,1.37
2023-01-09T17:49:26.456Z,1.37
2023-01-09T17:53:29.226Z,1.40
2023-01-09T17:57:33.538Z,1.43
2023-01-09T18:01:34.773Z,1.10
2023-01-09T18:05:36.273Z,1.40
2023-01-09T18:09:37.407Z,1.93
2023-01-09T18:13:38.686Z,2.90
2023-01-09T18:17:39.841Z,2.73
2023-01-09T18:21:40.994Z,2.30
2023-01-09T18:25:43.503Z,2.60
2023-01-09T18:29:44.949Z,2.40
2023-01-09T18:33:46.119Z,2.40
2023-01-09T18:37:47.681Z,5.70
2023-01-09T18:41:48.860Z,3.67
2023-01-09T18:45:50.076Z,4.60
2023-01-09T18:49:51.260Z,2.67
2023-01-09T18:53:54.009Z,3.90
2023-01-09T18:57:55.584Z,4.00
2023-01-09T19:01:56.772Z,3.47
2023-01-09T19:05:59.347Z,4.63
2023-01-09T19:10:00.554Z,3.40
2023-01-09T19:14:01.806Z,2.87
2023-01-09T19:18:03.237Z,2.00
2023-01-09T19:22:04.426Z,2.73
2023-01-09T19:26:08.177Z,1.30
2023-01-09T19:30:12.330Z,2.30
2023-01-09T19:34:15.287Z,2.17
2023-01-09T19:38:16.596Z,2.03
2023-01-09T19:42:17.817Z,2.00
2023-01-09T19:46:21.660Z,2.47
2023-01-09T19:50:22.789Z,1.30
2023-01-09T19:54:24.002Z,1.90
2023-01-09T19:58:27.713Z,1.80
2023-01-09T20:02:28.404Z,1.60
2023-01-09T20:06:30.581Z,1.60
2023-01-09T20:10:32.965Z,2.20
2023-01-09T20:14:37.172Z,2.10
2023-01-09T20:18:38.427Z,1.97
2023-01-09T20:22:39.604Z,1.80
2023-01-09T20:26:40.979Z,1.80
2023-01-09T20:30:46.767Z,2.23
2023-01-09T20:34:47.947Z,1.53
2023-01-09T20:38:49.105Z,1.50
2023-01-09T20:42:50.298Z,2.00
2023-01-09T20:46:52.941Z,1.50
2023-01-09T20:50:54.234Z,1.90
2023-01-09T20:54:55.406Z,2.27
2023-01-09T20:58:58.477Z,1.53
2023-01-09T21:02:59.649Z,1.60
2023-01-09T21:07:00.816Z,1.50
2023-01-09T21:11:02.800Z,1.30
2023-01-09T21:15:08.537Z,1.47
2023-01-09T21:19:09.717Z,2.30
2023-01-09T21:23:10.959Z,1.73
2023-01-09T21:27:12.034Z,2.37
2023-01-09T21:31:13.953Z,2.30
2023-01-09T21:35:15.338Z,1.40
2023-01-09T21:39:18.467Z,1.93
2023-01-09T21:43:44.563Z,1.83
2023-01-09T21:47:46.825Z,1.43
2023-01-09T21:51:48.201Z,1.70
2023-01-09T21:55:49.401Z,4.07
2023-01-09T21:59:50.576Z,3.17
2023-01-09T22:03:56.220Z,1.47
2023-01-09T22:07:57.352Z,1.90
2023-01-09T22:11:58.621Z,2.10
2023-01-09T22:16:04.984Z,2.27
2023-01-09T22:20:07.193Z,1.87
2023-01-09T22:24:13.662Z,1.90
2023-01-09T22:28:14.923Z,1.43
2023-01-09T22:32:16.125Z,1.50
2023-01-09T22:36:17.915Z,1.77
2023-01-09T22:40:19.086Z,1.70
2023-01-09T22:44:20.485Z,1.60
2023-01-09T22:48:21.551Z,1.60
2023-01-09T22:52:23.222Z,1.43
2023-01-09T22:56:24.316Z,1.60
2023-01-09T23:00:25.461Z,1.40
2023-01-09T23:04:26.650Z,1.77
2023-01-09T23:08:28.709Z,1.30
2023-01-09T23:12:29.862Z,1.60
2023-01-09T23:16:31.044Z,1.93
2023-01-09T23:20:32.305Z,1.67
2023-01-09T23:24:33.793Z,1.87
2023-01-09T23:28:34.952Z,1.60
2023-01-09T23:32:36.094Z,2.07
2023-01-09T23:36:37.295Z,1.40
2023-01-09T23:40:40.871Z,2.10
2023-01-09T23:44:42.023Z,1.60
2023-01-09T23:48:43.200Z,1.83
2023-01-09T23:52:44.602Z,1.50
2023-01-09T23:56:45.764Z,2.03
